Terminal Aerodrome Forecast
Issued by NWS

Home | Current Version | Previous Version | Graphics & Text | Print | Product List | Glossary On
Versions: 1 2 3 4 5 6 7 8 9 10 11 12 13 14 15 16 17 18 19 20
964
FTUS43 KABR 192245 AAC
TAFATY
TAF AMD
KATY 192245Z 1923/2018 02018G23KT 5SM BR OVC020
      TEMPO 1923/2001 3SM -FZDZ BR OVC015
     FM200100 02013KT 3SM -SN OVC015
     FM201200 35012KT 1SM -SN OVC025
     FM201600 33013KT P6SM -SN OVC035=

USA.gov is the U.S. government's official web portal to all federal, state and local government web resources and services.